createdAt,value
2023-05-21T00:00:48.718Z,15.30
2023-05-21T00:03:16.824Z,14.57
2023-05-21T00:05:47.154Z,17.40
2023-05-21T00:08:15.437Z,15.80
2023-05-21T00:10:43.477Z,16.90
2023-05-21T00:13:11.527Z,17.93
2023-05-21T00:15:41.004Z,18.07
2023-05-21T00:18:09.078Z,16.07
2023-05-21T00:20:37.226Z,16.03
2023-05-21T00:23:05.345Z,17.20
2023-05-21T00:25:33.477Z,16.90
2023-05-21T00:28:01.524Z,17.53
2023-05-21T00:30:29.524Z,17.37
2023-05-21T00:33:02.608Z,16.23
2023-05-21T00:35:31.272Z,16.53
2023-05-21T00:38:00.217Z,15.93
2023-05-21T00:40:28.210Z,16.30
2023-05-21T00:42:57.251Z,16.63
2023-05-21T00:45:25.589Z,16.63
2023-05-21T00:47:55.564Z,12.77
2023-05-21T00:50:26.032Z,17.10
2023-05-21T00:52:54.408Z,18.40
2023-05-21T00:55:22.807Z,17.10
2023-05-21T00:57:50.801Z,17.50
2023-05-21T01:00:20.316Z,17.77
2023-05-21T01:02:49.891Z,17.87
2023-05-21T01:05:18.128Z,16.93
2023-05-21T01:07:48.376Z,17.20
2023-05-21T01:10:16.708Z,18.60
2023-05-21T01:12:46.702Z,17.33
2023-05-21T01:15:15.134Z,17.30
2023-05-21T01:17:46.158Z,17.30
2023-05-21T01:20:18.097Z,17.70
2023-05-21T01:22:53.169Z,17.47
2023-05-21T01:25:21.223Z,16.50
2023-05-21T01:27:49.232Z,16.57
2023-05-21T01:30:19.191Z,17.30
2023-05-21T01:32:53.156Z,18.57
2023-05-21T01:35:23.673Z,18.53
2023-05-21T01:37:57.018Z,17.00
2023-05-21T01:40:30.787Z,17.53
2023-05-21T01:43:00.113Z,17.53
2023-05-21T01:45:30.711Z,17.77
2023-05-21T01:47:59.178Z,17.73
2023-05-21T01:50:28.101Z,18.20
2023-05-21T01:52:58.580Z,16.97
2023-05-21T01:55:26.911Z,17.50
2023-05-21T01:57:55.840Z,18.17
2023-05-21T02:00:24.953Z,18.50
2023-05-21T02:02:53.984Z,18.33
2023-05-21T02:05:22.202Z,19.60
2023-05-21T02:07:53.401Z,20.50
2023-05-21T02:10:22.800Z,17.60
2023-05-21T02:12:50.925Z,19.33
2023-05-21T02:15:19.312Z,17.60
2023-05-21T02:17:47.792Z,17.47
2023-05-21T02:20:15.781Z,17.67
2023-05-21T02:22:45.515Z,19.33
2023-05-21T02:25:14.713Z,17.47
2023-05-21T02:27:46.603Z,17.70
2023-05-21T02:30:16.774Z,16.53
2023-05-21T02:32:45.108Z,18.57
2023-05-21T02:35:14.172Z,20.20
2023-05-21T02:37:43.948Z,19.43
2023-05-21T02:40:12.843Z,17.80
2023-05-21T02:42:41.544Z,19.40
2023-05-21T02:45:12.870Z,17.90
2023-05-21T02:47:41.101Z,19.03
2023-05-21T02:50:10.133Z,18.97
2023-05-21T02:52:38.126Z,20.60
2023-05-21T02:55:06.962Z,18.60
2023-05-21T02:57:34.930Z,17.10
2023-05-21T03:00:03.817Z,18.97
2023-05-21T03:02:33.357Z,19.17
2023-05-21T03:05:01.465Z,19.03
2023-05-21T03:07:29.441Z,17.73
2023-05-21T03:09:57.406Z,19.10
2023-05-21T03:12:25.610Z,21.47
2023-05-21T03:14:54.371Z,19.07
2023-05-21T03:17:22.346Z,18.63
2023-05-21T03:19:52.064Z,19.43
2023-05-21T03:22:20.226Z,18.77
2023-05-21T03:24:48.649Z,19.97
2023-05-21T03:27:16.765Z,19.80
2023-05-21T03:29:45.951Z,17.77
2023-05-21T03:32:14.489Z,20.07
2023-05-21T03:34:42.587Z,21.23
2023-05-21T03:37:11.893Z,20.93
2023-05-21T03:39:39.839Z,17.77
2023-05-21T03:42:07.820Z,18.33
2023-05-21T03:44:35.885Z,20.00
2023-05-21T03:47:03.873Z,19.47
2023-05-21T03:49:31.852Z,19.20
2023-05-21T03:51:59.894Z,19.97
2023-05-21T03:54:29.253Z,20.43
2023-05-21T03:56:57.287Z,19.17
2023-05-21T03:59:25.355Z,18.13
2023-05-21T04:01:53.388Z,20.60
2023-05-21T04:04:21.420Z,18.97
2023-05-21T04:06:49.657Z,20.40
2023-05-21T04:09:17.668Z,18.93
2023-05-21T04:11:47.471Z,19.40
2023-05-21T04:14:15.561Z,19.60
2023-05-21T04:16:44.841Z,18.43
2023-05-21T04:19:12.892Z,19.80
2023-05-21T04:21:40.967Z,19.87
2023-05-21T04:24:08.962Z,20.40
2023-05-21T04:26:36.951Z,18.43
2023-05-21T04:29:06.376Z,19.90
2023-05-21T04:31:34.403Z,20.23
2023-05-21T04:34:02.376Z,19.17
2023-05-21T04:36:30.378Z,19.97
2023-05-21T04:38:58.362Z,18.80
2023-05-21T04:41:26.416Z,18.40
2023-05-21T04:43:55.404Z,20.40
2023-05-21T04:46:25.751Z,19.90
2023-05-21T04:48:55.038Z,20.03
2023-05-21T04:51:24.734Z,19.87
2023-05-21T04:53:53.965Z,19.77
2023-05-21T04:56:22.866Z,19.60
2023-05-21T04:58:50.826Z,19.73
2023-05-21T05:01:19.122Z,21.03
2023-05-21T05:03:48.627Z,22.47
2023-05-21T05:06:16.822Z,21.17
2023-05-21T05:08:45.207Z,18.50
2023-05-21T05:11:13.234Z,17.10
2023-05-21T05:13:42.567Z,19.47
2023-05-21T05:16:11.323Z,18.50
2023-05-21T05:18:39.340Z,18.43
2023-05-21T05:21:08.654Z,19.97
2023-05-21T05:23:36.688Z,20.40
2023-05-21T05:26:04.651Z,20.13
2023-05-21T05:28:32.661Z,20.13
2023-05-21T05:31:00.645Z,19.03
2023-05-21T05:33:28.644Z,19.37
2023-05-21T05:35:56.622Z,19.40
2023-05-21T05:38:26.775Z,17.70
2023-05-21T05:40:54.789Z,18.50
2023-05-21T05:43:22.833Z,17.50
2023-05-21T05:45:51.215Z,19.60
2023-05-21T05:48:19.222Z,17.70
2023-05-21T05:50:47.431Z,18.00
2023-05-21T05:53:15.607Z,17.57
2023-05-21T05:55:45.013Z,18.27
2023-05-21T05:58:12.997Z,16.83
2023-05-21T06:00:40.972Z,18.60
2023-05-21T06:03:09.061Z,17.27
2023-05-21T06:05:37.210Z,18.23
2023-05-21T06:08:05.800Z,16.70
2023-05-21T06:10:33.838Z,17.53
2023-05-21T06:13:03.167Z,17.10
2023-05-21T06:15:31.709Z,16.10
2023-05-21T06:17:59.734Z,16.40
2023-05-21T06:20:27.734Z,16.23
2023-05-21T06:22:55.845Z,16.60
2023-05-21T06:25:25.730Z,16.50
2023-05-21T06:27:53.720Z,15.67
2023-05-21T06:30:23.015Z,17.17
2023-05-21T06:32:51.128Z,15.83
2023-05-21T06:35:19.239Z,16.50
2023-05-21T06:37:48.674Z,14.90
2023-05-21T06:40:16.894Z,15.70
2023-05-21T06:42:44.918Z,15.23
2023-05-21T06:45:13.498Z,15.03
2023-05-21T06:47:42.854Z,16.20
2023-05-21T06:50:11.301Z,15.13
2023-05-21T06:52:39.330Z,16.17
2023-05-21T06:55:08.109Z,14.40
2023-05-21T06:57:36.166Z,15.13
2023-05-21T07:00:05.345Z,13.07
2023-05-21T07:02:33.472Z,14.30
2023-05-21T07:05:02.898Z,14.77
2023-05-21T07:07:30.852Z,12.63
2023-05-21T07:09:58.824Z,13.27
2023-05-21T07:12:26.777Z,13.80
2023-05-21T07:14:54.795Z,13.70
2023-05-21T07:17:22.783Z,13.07
2023-05-21T07:19:50.790Z,12.43
2023-05-21T07:22:20.093Z,13.70
2023-05-21T07:24:48.069Z,13.60
2023-05-21T07:27:25.408Z,12.93
2023-05-21T07:29:54.064Z,12.63
2023-05-21T07:32:22.061Z,11.63
2023-05-21T07:34:51.561Z,12.07
2023-05-21T07:37:22.172Z,11.37
2023-05-21T07:39:50.149Z,12.00
2023-05-21T07:42:18.130Z,11.67
2023-05-21T07:44:58.459Z,11.47
2023-05-21T07:47:26.585Z,12.23
2023-05-21T07:49:54.597Z,12.20
2023-05-21T07:52:23.965Z,13.23
2023-05-21T07:54:51.961Z,11.33
2023-05-21T07:57:20.103Z,13.67
2023-05-21T07:59:48.143Z,12.23
2023-05-21T08:02:16.655Z,12.50
2023-05-21T08:04:44.691Z,12.83
2023-05-21T08:07:13.782Z,11.70
2023-05-21T08:09:43.145Z,13.90
2023-05-21T08:12:14.356Z,11.90
2023-05-21T08:14:55.042Z,12.13
2023-05-21T08:17:23.028Z,12.63
2023-05-21T08:19:51.112Z,11.07
2023-05-21T08:22:19.066Z,12.20
2023-05-21T08:24:48.385Z,12.53
2023-05-21T08:27:16.462Z,11.60
2023-05-21T08:29:44.605Z,12.27
2023-05-21T08:32:12.758Z,11.80
2023-05-21T08:34:40.936Z,13.07
2023-05-21T08:37:08.916Z,13.27
2023-05-21T08:39:36.942Z,12.70
2023-05-21T08:42:25.624Z,12.50
2023-05-21T08:45:07.029Z,14.60
2023-05-21T08:47:36.987Z,13.60
2023-05-21T08:50:05.981Z,12.80
2023-05-21T08:52:33.991Z,11.90
2023-05-21T08:55:04.470Z,12.63
2023-05-21T08:57:34.024Z,13.07
2023-05-21T09:00:02.770Z,13.13
2023-05-21T09:02:36.447Z,12.40
2023-05-21T09:05:05.675Z,13.00
2023-05-21T09:07:40.634Z,11.80
2023-05-21T09:10:13.070Z,13.20
2023-05-21T09:12:42.918Z,12.90
2023-05-21T09:15:11.829Z,11.77
2023-05-21T09:17:39.839Z,13.60
2023-05-21T09:20:13.550Z,12.77
2023-05-21T09:22:43.184Z,13.30
2023-05-21T09:25:12.420Z,12.33
2023-05-21T09:27:41.997Z,13.60
2023-05-21T09:30:14.566Z,12.70
2023-05-21T09:32:43.198Z,13.47
2023-05-21T09:35:13.256Z,13.50
2023-05-21T09:37:43.857Z,13.67
2023-05-21T09:40:13.997Z,13.40
2023-05-21T09:42:46.671Z,12.73
2023-05-21T09:45:19.572Z,14.83
2023-05-21T09:47:48.903Z,12.77
2023-05-21T09:50:20.554Z,14.03
2023-05-21T09:52:50.374Z,13.70
2023-05-21T09:55:18.762Z,13.00
2023-05-21T09:57:50.722Z,13.53
2023-05-21T10:00:20.246Z,12.40
2023-05-21T10:02:49.296Z,11.83
2023-05-21T10:05:18.399Z,11.37
2023-05-21T10:07:50.566Z,12.30
2023-05-21T10:10:21.124Z,11.97
2023-05-21T10:13:01.755Z,12.30
2023-05-21T10:15:33.273Z,11.90
2023-05-21T10:18:02.675Z,12.13
2023-05-21T10:20:31.094Z,11.70
2023-05-21T10:23:00.723Z,11.73
2023-05-21T10:25:29.843Z,10.90
2023-05-21T10:27:59.651Z,12.17
2023-05-21T10:30:28.218Z,11.13
2023-05-21T10:32:57.646Z,11.17
2023-05-21T10:35:26.018Z,13.10
2023-05-21T10:37:55.206Z,11.00
2023-05-21T10:40:23.266Z,10.47
2023-05-21T10:43:13.791Z,12.83
2023-05-21T10:45:57.275Z,11.80
2023-05-21T10:48:36.576Z,12.90
2023-05-21T10:51:20.001Z,12.43
2023-05-21T10:54:13.175Z,11.80
2023-05-21T10:56:46.395Z,11.70
2023-05-21T10:59:28.444Z,13.10
2023-05-21T11:01:56.995Z,11.63
2023-05-21T11:04:27.644Z,13.20
2023-05-21T11:06:56.338Z,11.67
2023-05-21T11:09:24.454Z,12.10
2023-05-21T11:11:54.045Z,13.03
2023-05-21T11:14:35.372Z,12.17
2023-05-21T11:17:05.180Z,12.00
2023-05-21T11:19:38.271Z,12.00
2023-05-21T11:22:10.689Z,12.90
2023-05-21T11:24:40.540Z,13.27
2023-05-21T11:27:08.790Z,11.77
2023-05-21T11:29:47.169Z,12.10
2023-05-21T11:32:17.352Z,12.20
2023-05-21T11:34:49.535Z,12.53
2023-05-21T11:37:31.957Z,11.87
2023-05-21T11:40:18.337Z,10.90
2023-05-21T11:42:51.099Z,12.17
2023-05-21T11:45:22.057Z,11.30
2023-05-21T11:47:51.409Z,11.73
2023-05-21T11:50:20.140Z,11.97
2023-05-21T11:52:48.295Z,11.27
2023-05-21T11:55:22.726Z,10.80
2023-05-21T11:57:54.313Z,10.10
2023-05-21T12:00:24.427Z,9.60
2023-05-21T12:02:54.574Z,10.70
2023-05-21T12:05:23.320Z,10.43
2023-05-21T12:07:51.439Z,10.20
2023-05-21T12:10:22.716Z,10.63
2023-05-21T12:12:56.436Z,9.87
2023-05-21T12:15:27.793Z,10.80
2023-05-21T12:17:56.890Z,9.90
2023-05-21T12:20:28.020Z,10.13
2023-05-21T12:22:57.964Z,9.47
2023-05-21T12:25:26.236Z,9.43
2023-05-21T12:27:58.787Z,9.80
2023-05-21T12:30:29.208Z,9.20
2023-05-21T12:33:00.448Z,8.87
2023-05-21T12:35:28.636Z,9.17
2023-05-21T12:37:56.825Z,8.93
2023-05-21T12:40:37.178Z,8.80
2023-05-21T12:43:06.325Z,8.50
2023-05-21T12:45:37.129Z,9.10
2023-05-21T12:48:05.611Z,8.90
2023-05-21T12:50:35.565Z,8.17
2023-05-21T12:53:04.095Z,8.30
2023-05-21T12:55:32.954Z,7.87
2023-05-21T12:58:07.998Z,7.23
2023-05-21T13:00:38.360Z,8.30
2023-05-21T13:03:07.283Z,8.10
2023-05-21T13:05:35.860Z,8.70
2023-05-21T13:08:04.317Z,8.73
2023-05-21T13:10:32.296Z,9.03
2023-05-21T13:13:00.379Z,8.23
2023-05-21T13:15:28.517Z,8.73
2023-05-21T13:18:01.156Z,8.63
2023-05-21T13:20:29.600Z,8.50
2023-05-21T13:22:57.757Z,7.60
2023-05-21T13:25:28.949Z,8.60
2023-05-21T13:27:58.083Z,8.30
2023-05-21T13:30:26.285Z,8.90
2023-05-21T13:32:54.635Z,8.93
2023-05-21T13:35:24.212Z,8.80
2023-05-21T13:37:52.190Z,8.57
2023-05-21T13:40:20.356Z,8.60
2023-05-21T13:42:50.410Z,8.17
2023-05-21T13:45:20.801Z,8.60
2023-05-21T13:47:49.504Z,7.77
2023-05-21T13:50:18.048Z,8.33
2023-05-21T13:52:47.383Z,9.60
2023-05-21T13:55:16.712Z,7.40
2023-05-21T13:57:45.000Z,7.60
2023-05-21T14:00:15.721Z,7.10
2023-05-21T14:02:44.765Z,7.63
2023-05-21T14:05:13.484Z,6.77
2023-05-21T14:07:42.102Z,6.90
2023-05-21T14:10:12.334Z,7.30
2023-05-21T14:12:40.732Z,6.90
2023-05-21T14:15:09.855Z,7.90
2023-05-21T14:17:40.097Z,7.63
2023-05-21T14:20:09.672Z,7.17
2023-05-21T14:22:37.882Z,6.80
2023-05-21T14:25:06.560Z,7.50
2023-05-21T14:27:37.729Z,7.60
2023-05-21T14:30:06.656Z,7.30
2023-05-21T14:32:34.680Z,7.60
2023-05-21T14:35:02.727Z,7.90
2023-05-21T14:37:30.869Z,8.70
2023-05-21T14:39:58.901Z,8.10
2023-05-21T14:42:26.934Z,8.10
2023-05-21T14:44:56.280Z,9.47
2023-05-21T14:47:24.323Z,7.70
2023-05-21T14:49:52.376Z,7.73
2023-05-21T14:52:20.401Z,7.90
2023-05-21T14:54:48.389Z,8.43
2023-05-21T14:57:16.445Z,8.63
2023-05-21T14:59:44.623Z,7.17
2023-05-21T15:02:14.276Z,7.90
2023-05-21T15:04:42.339Z,7.67
2023-05-21T15:07:10.527Z,8.00
2023-05-21T15:09:38.535Z,9.20
2023-05-21T15:12:06.896Z,7.90
2023-05-21T15:14:34.983Z,8.30
2023-05-21T15:17:02.966Z,7.23
2023-05-21T15:19:32.347Z,7.90
2023-05-21T15:22:00.409Z,7.23
2023-05-21T15:24:28.405Z,7.67
2023-05-21T15:26:56.398Z,7.73
2023-05-21T15:29:24.385Z,8.20
2023-05-21T15:31:52.392Z,7.57
2023-05-21T15:34:20.429Z,7.43
2023-05-21T15:36:49.772Z,7.87
2023-05-21T15:39:17.720Z,8.00
2023-05-21T15:41:45.868Z,7.90
2023-05-21T15:44:13.868Z,8.60
2023-05-21T15:46:42.001Z,7.83
2023-05-21T15:49:10.058Z,7.57
2023-05-21T15:51:38.536Z,8.67
2023-05-21T15:54:07.893Z,8.97
2023-05-21T15:56:35.926Z,8.83
2023-05-21T15:59:04.284Z,8.23
2023-05-21T16:01:32.437Z,8.20
2023-05-21T16:04:00.605Z,8.30
2023-05-21T16:06:28.795Z,8.17
2023-05-21T16:08:56.779Z,7.73
2023-05-21T16:11:26.710Z,9.03
2023-05-21T16:13:54.870Z,9.47
2023-05-21T16:16:24.631Z,9.10
2023-05-21T16:18:53.028Z,7.97
2023-05-21T16:21:21.277Z,8.43
2023-05-21T16:23:49.295Z,8.70
2023-05-21T16:26:17.289Z,8.70
2023-05-21T16:28:46.634Z,7.87
2023-05-21T16:31:14.709Z,8.07
2023-05-21T16:33:42.727Z,8.93
2023-05-21T16:36:10.786Z,7.93
2023-05-21T16:38:38.777Z,8.70
2023-05-21T16:41:06.901Z,8.30
2023-05-21T16:43:34.892Z,9.10
2023-05-21T16:46:04.248Z,8.60
2023-05-21T16:48:32.794Z,8.93
2023-05-21T16:51:01.092Z,8.60
2023-05-21T16:53:29.106Z,7.97
2023-05-21T16:55:57.116Z,8.87
2023-05-21T16:58:25.108Z,8.53
2023-05-21T17:00:53.188Z,11.13
2023-05-21T17:03:22.925Z,9.07
2023-05-21T17:05:51.016Z,8.43
2023-05-21T17:08:19.313Z,9.57
2023-05-21T17:10:47.331Z,8.70
2023-05-21T17:13:22.353Z,9.10
2023-05-21T17:15:51.787Z,8.80
2023-05-21T17:18:19.934Z,9.00
2023-05-21T17:20:49.340Z,7.90
2023-05-21T17:23:17.456Z,8.70
2023-05-21T17:25:45.607Z,9.33
2023-05-21T17:28:13.659Z,8.83
2023-05-21T17:30:41.680Z,7.90
2023-05-21T17:33:10.341Z,8.70
2023-05-21T17:35:38.974Z,8.87
2023-05-21T17:38:08.749Z,9.13
2023-05-21T17:40:36.834Z,9.20
2023-05-21T17:43:07.186Z,9.00
2023-05-21T17:45:35.536Z,8.27
2023-05-21T17:48:03.912Z,9.20
2023-05-21T17:50:32.066Z,9.13
2023-05-21T17:53:00.182Z,8.90
2023-05-21T17:55:29.558Z,7.80
2023-05-21T17:57:57.567Z,9.20
2023-05-21T18:00:25.781Z,9.43
2023-05-21T18:02:53.904Z,9.03
2023-05-21T18:05:22.807Z,8.83
2023-05-21T18:07:51.148Z,9.37
2023-05-21T18:10:19.221Z,8.37
2023-05-21T18:12:48.639Z,9.73
2023-05-21T18:15:17.022Z,10.03
2023-05-21T18:17:45.484Z,10.00
2023-05-21T18:20:14.757Z,10.43
2023-05-21T18:22:42.766Z,10.20
2023-05-21T18:25:11.646Z,11.20
2023-05-21T18:27:39.674Z,11.20
2023-05-21T18:30:10.702Z,10.30
2023-05-21T18:32:39.525Z,10.40
2023-05-21T18:35:10.921Z,10.60
2023-05-21T18:37:42.133Z,10.43
2023-05-21T18:40:12.025Z,10.30
2023-05-21T18:42:40.221Z,10.47
2023-05-21T18:45:11.192Z,11.63
2023-05-21T18:47:40.413Z,11.30
2023-05-21T18:50:10.329Z,11.20
2023-05-21T18:52:38.329Z,11.50
2023-05-21T18:55:07.325Z,11.30
2023-05-21T18:57:35.628Z,10.33
2023-05-21T19:00:03.786Z,11.27
2023-05-21T19:02:33.473Z,11.10
2023-05-21T19:05:01.868Z,10.37
2023-05-21T19:07:30.060Z,10.80
2023-05-21T19:10:00.029Z,9.60
2023-05-21T19:12:29.369Z,9.27
2023-05-21T19:14:57.421Z,9.20
2023-05-21T19:17:25.526Z,10.73
2023-05-21T19:19:56.119Z,10.63
2023-05-21T19:22:24.932Z,9.53
2023-05-21T19:24:53.300Z,9.60
2023-05-21T19:27:21.896Z,8.87
2023-05-21T19:29:50.117Z,11.10
2023-05-21T19:32:18.399Z,10.33
2023-05-21T19:34:46.778Z,10.67
2023-05-21T19:37:16.727Z,9.87
2023-05-21T19:39:49.518Z,10.27
2023-05-21T19:42:18.614Z,10.63
2023-05-21T19:44:46.794Z,9.60
2023-05-21T19:47:15.052Z,10.20
2023-05-21T19:49:43.196Z,10.67
2023-05-21T19:52:12.133Z,10.80
2023-05-21T19:54:41.578Z,10.13
2023-05-21T19:57:10.967Z,11.53
2023-05-21T19:59:40.448Z,10.73
2023-05-21T20:02:12.212Z,12.13
2023-05-21T20:04:40.217Z,11.53
2023-05-21T20:07:08.412Z,11.27
2023-05-21T20:09:36.407Z,11.20
2023-05-21T20:12:06.404Z,10.73
2023-05-21T20:14:48.427Z,10.40
2023-05-21T20:17:18.819Z,11.40
2023-05-21T20:19:48.274Z,11.00
2023-05-21T20:22:16.517Z,10.60
2023-05-21T20:24:45.004Z,9.90
2023-05-21T20:27:14.821Z,11.40
2023-05-21T20:29:43.855Z,10.73
2023-05-21T20:32:12.050Z,11.20
2023-05-21T20:34:54.353Z,10.27
2023-05-21T20:37:29.427Z,11.13
2023-05-21T20:39:58.085Z,11.27
2023-05-21T20:42:28.726Z,11.80
2023-05-21T20:44:58.849Z,11.33
2023-05-21T20:47:29.835Z,11.07
2023-05-21T20:49:58.447Z,11.07
2023-05-21T20:52:26.945Z,11.60
2023-05-21T20:54:55.202Z,11.93
2023-05-21T20:57:23.979Z,10.83
2023-05-21T20:59:53.383Z,11.10
2023-05-21T21:02:22.891Z,9.93
2023-05-21T21:04:51.717Z,11.30
2023-05-21T21:07:20.650Z,10.63
2023-05-21T21:09:50.218Z,11.40
2023-05-21T21:14:49.164Z,12.37
2023-05-21T21:17:18.551Z,12.30
2023-05-21T21:19:46.541Z,12.20
2023-05-21T21:22:15.774Z,12.30
2023-05-21T21:24:43.769Z,11.70
2023-05-21T21:27:11.835Z,11.50
2023-05-21T21:29:39.928Z,11.70
2023-05-21T21:32:08.824Z,11.20
2023-05-21T21:34:38.189Z,11.30
2023-05-21T21:37:06.581Z,11.10
2023-05-21T21:39:34.611Z,11.17
2023-05-21T21:42:02.675Z,11.83
2023-05-21T21:44:30.635Z,11.97
2023-05-21T21:46:58.630Z,12.63
2023-05-21T21:49:26.627Z,10.70
2023-05-21T21:51:57.803Z,11.50
2023-05-21T21:54:27.629Z,11.27
2023-05-21T21:56:55.779Z,11.70
2023-05-21T21:59:23.785Z,11.10
2023-05-21T22:01:51.908Z,11.40
2023-05-21T22:04:19.961Z,11.33
2023-05-21T22:06:48.307Z,12.37
2023-05-21T22:09:18.114Z,12.93
2023-05-21T22:11:46.205Z,12.40
2023-05-21T22:14:14.324Z,11.60
2023-05-21T22:16:43.196Z,12.97
2023-05-21T22:19:12.907Z,11.90
2023-05-21T22:21:41.996Z,11.87
2023-05-21T22:24:20.662Z,11.33
2023-05-21T22:26:59.717Z,10.37
2023-05-21T22:29:27.775Z,10.47
2023-05-21T22:31:55.923Z,9.43
2023-05-21T22:34:25.244Z,10.20
2023-05-21T22:36:53.364Z,10.40
2023-05-21T22:39:21.384Z,10.33
2023-05-21T22:41:49.527Z,10.87
2023-05-21T22:44:18.893Z,11.47
2023-05-21T22:46:47.695Z,11.30
2023-05-21T22:49:16.421Z,11.23
2023-05-21T22:51:44.868Z,11.30
2023-05-21T22:54:12.935Z,12.93
2023-05-21T22:56:40.996Z,11.97
2023-05-21T22:59:08.987Z,14.93
2023-05-21T23:01:38.815Z,12.90
2023-05-21T23:04:06.916Z,11.57
2023-05-21T23:06:34.930Z,11.27
2023-05-21T23:09:02.952Z,12.00
2023-05-21T23:11:30.975Z,12.40
2023-05-21T23:13:58.934Z,13.57
2023-05-21T23:16:27.159Z,12.90
2023-05-21T23:18:56.675Z,13.33
2023-05-21T23:21:25.088Z,14.17
2023-05-21T23:23:53.193Z,12.77
2023-05-21T23:26:21.718Z,12.00
2023-05-21T23:28:49.728Z,11.03
2023-05-21T23:31:17.858Z,13.10
2023-05-21T23:33:45.934Z,12.20
2023-05-21T23:36:15.350Z,12.37
2023-05-21T23:38:43.397Z,12.50
2023-05-21T23:41:11.578Z,12.30
2023-05-21T23:43:39.608Z,13.53
2023-05-21T23:46:08.457Z,13.20
2023-05-21T23:48:36.468Z,13.10
2023-05-21T23:51:04.640Z,14.00
2023-05-21T23:53:34.017Z,13.23
2023-05-21T23:56:02.005Z,13.20
2023-05-21T23:58:30.020Z,13.23
